createdAt,value
2023-04-20T00:00:03.192Z,7.2
2023-04-20T00:01:09.744Z,7.2
2023-04-20T00:02:17.096Z,7.2
2023-04-20T00:03:24.174Z,7.2
2023-04-20T00:04:31.041Z,7.2
2023-04-20T00:05:38.163Z,7.2
2023-04-20T00:06:44.810Z,7.2
2023-04-20T00:07:51.823Z,7.2
2023-04-20T00:08:59.014Z,7.2
2023-04-20T00:10:06.091Z,7.2
2023-04-20T00:11:13.200Z,7.2
2023-04-20T00:12:19.843Z,7.2
2023-04-20T00:13:26.951Z,7.2
2023-04-20T00:14:33.976Z,7.2
2023-04-20T00:15:41.089Z,7.2
2023-04-20T00:16:48.440Z,7.2
2023-04-20T00:17:54.932Z,7.2
2023-04-20T00:19:01.914Z,7.2
2023-04-20T00:20:09.052Z,7.2
2023-04-20T00:21:16.138Z,7.2
2023-04-20T00:22:23.177Z,7.2
2023-04-20T00:23:29.773Z,7.2
2023-04-20T00:24:37.530Z,7.2
2023-04-20T00:25:43.999Z,7.2
2023-04-20T00:26:51.053Z,7.2
2023-04-20T00:27:58.164Z,7.2
2023-04-20T00:29:04.864Z,7.2
2023-04-20T00:30:11.854Z,7.2
2023-04-20T00:31:19.084Z,7.2
2023-04-20T00:32:26.256Z,7.2
2023-04-20T00:33:32.648Z,7.2
2023-04-20T00:34:39.836Z,7.2
2023-04-20T00:35:46.881Z,7.2
2023-04-20T00:36:54.072Z,7.2
2023-04-20T00:38:01.100Z,7.2
2023-04-20T00:39:07.733Z,7.2
2023-04-20T00:40:14.837Z,7.2
2023-04-20T00:41:21.899Z,7.2
2023-04-20T00:43:36.173Z,7.2
2023-04-20T00:44:42.676Z,7.2
2023-04-20T00:45:49.823Z,7.2
2023-04-20T00:46:56.963Z,7.2
2023-04-20T00:48:04.196Z,7.2
2023-04-20T00:49:11.131Z,7.2
2023-04-20T00:50:17.702Z,7.2
2023-04-20T00:51:24.869Z,7.2
2023-04-20T00:52:31.897Z,7.2
2023-04-20T00:53:39.035Z,7.2
2023-04-20T00:54:46.174Z,7.3
2023-04-20T00:55:52.725Z,7.2
2023-04-20T00:56:59.860Z,7.2
2023-04-20T00:58:06.958Z,7.2
2023-04-20T00:59:14.154Z,7.2
2023-04-20T01:00:21.149Z,7.3
2023-04-20T01:01:27.810Z,7.3
2023-04-20T01:02:35.086Z,7.3
2023-04-20T01:03:42.242Z,7.3
2023-04-20T01:04:49.033Z,7.3
2023-04-20T01:05:56.126Z,7.3
2023-04-20T01:07:02.755Z,7.3
2023-04-20T01:08:09.828Z,7.3
2023-04-20T01:09:17.304Z,7.3
2023-04-20T01:10:24.057Z,7.3
2023-04-20T01:11:31.145Z,7.4
2023-04-20T01:12:37.772Z,7.4
2023-04-20T01:13:44.941Z,7.4
2023-04-20T01:14:51.960Z,7.4
2023-04-20T01:15:59.136Z,7.4
2023-04-20T01:17:06.399Z,7.4
2023-04-20T01:18:13.270Z,7.4
2023-04-20T01:19:20.031Z,7.4
2023-04-20T01:20:27.036Z,7.4
2023-04-20T01:21:34.022Z,7.5
2023-04-20T01:22:41.129Z,7.5
2023-04-20T01:23:47.834Z,7.5
2023-04-20T01:24:54.903Z,7.5
2023-04-20T01:26:01.926Z,7.5
2023-04-20T01:27:09.034Z,7.5
2023-04-20T01:28:16.228Z,7.5
2023-04-20T01:29:22.761Z,7.5
2023-04-20T01:30:29.939Z,7.5
2023-04-20T01:31:37.139Z,7.5
2023-04-20T01:32:44.085Z,7.5
2023-04-20T01:33:51.266Z,7.5
2023-04-20T01:34:57.818Z,7.5
2023-04-20T01:36:04.907Z,7.5
2023-04-20T01:37:11.975Z,7.6
2023-04-20T01:38:19.082Z,7.6
2023-04-20T01:39:26.334Z,7.6
2023-04-20T01:40:32.735Z,7.6
2023-04-20T01:41:39.940Z,7.6
2023-04-20T01:42:46.990Z,7.6
2023-04-20T01:43:54.052Z,7.6
2023-04-20T01:45:01.193Z,7.6
2023-04-20T01:47:14.908Z,7.5
2023-04-20T01:48:22.027Z,7.5
2023-04-20T01:49:29.153Z,7.6
2023-04-20T01:50:36.244Z,7.5
2023-04-20T01:51:42.754Z,7.6
2023-04-20T01:53:57.008Z,7.5
2023-04-20T01:55:04.116Z,7.5
2023-04-20T01:56:11.213Z,7.6
2023-04-20T01:57:17.794Z,7.5
2023-04-20T01:58:24.969Z,7.5
2023-04-20T01:59:32.026Z,7.5
2023-04-20T02:00:39.203Z,7.5
2023-04-20T02:01:45.787Z,7.5
2023-04-20T02:02:52.927Z,7.5
2023-04-20T02:04:00.041Z,7.5
2023-04-20T02:05:07.081Z,7.5
2023-04-20T02:06:14.153Z,7.5
2023-04-20T02:07:20.673Z,7.5
2023-04-20T02:08:27.850Z,7.5
2023-04-20T02:09:34.959Z,7.5
2023-04-20T02:10:42.026Z,7.5
2023-04-20T02:11:49.186Z,7.5
2023-04-20T02:12:55.716Z,7.4
2023-04-20T02:14:02.840Z,7.4
2023-04-20T02:15:09.992Z,7.4
2023-04-20T02:16:17.067Z,7.4
2023-04-20T02:17:24.210Z,7.4
2023-04-20T02:18:30.715Z,7.4
2023-04-20T02:19:37.908Z,7.3
2023-04-20T02:20:45.008Z,7.2
2023-04-20T02:21:52.003Z,7.2
2023-04-20T02:22:59.134Z,7.2
2023-04-20T02:24:05.794Z,7.2
2023-04-20T02:25:12.830Z,7.2
2023-04-20T02:26:19.924Z,7.2
2023-04-20T02:27:27.044Z,7.2
2023-04-20T02:28:34.134Z,7.2
2023-04-20T02:29:40.773Z,7.2
2023-04-20T02:30:47.898Z,7.1
2023-04-20T02:31:54.963Z,7.1
2023-04-20T02:33:02.112Z,7.1
2023-04-20T02:34:09.157Z,7.1
2023-04-20T02:35:15.765Z,7.1
2023-04-20T02:36:22.808Z,7
2023-04-20T02:37:29.985Z,7
2023-04-20T02:38:37.174Z,7.1
2023-04-20T02:39:44.170Z,7.1
2023-04-20T02:40:50.754Z,7
2023-04-20T02:41:57.909Z,7
2023-04-20T02:43:04.966Z,7
2023-04-20T02:44:12.156Z,7
2023-04-20T02:45:19.165Z,7
2023-04-20T02:46:25.824Z,7
2023-04-20T02:47:32.903Z,7
2023-04-20T02:48:40.037Z,7
2023-04-20T02:50:54.304Z,6.9
2023-04-20T02:52:03.663Z,6.9
2023-04-20T02:53:07.871Z,6.9
2023-04-20T02:54:15.069Z,6.9
2023-04-20T02:55:22.054Z,6.9
2023-04-20T02:56:29.258Z,6.9
2023-04-20T02:57:35.833Z,6.9
2023-04-20T02:58:42.853Z,6.9
2023-04-20T02:59:50.024Z,6.9
2023-04-20T03:00:57.118Z,6.9
2023-04-20T03:02:04.307Z,6.9
2023-04-20T03:03:10.921Z,6.9
2023-04-20T03:04:18.174Z,6.9
2023-04-20T03:05:24.993Z,6.9
2023-04-20T03:06:32.128Z,6.9
2023-04-20T03:07:39.279Z,6.9
2023-04-20T03:08:45.834Z,6.9
2023-04-20T03:09:52.869Z,6.9
2023-04-20T03:11:00.061Z,6.8
2023-04-20T03:12:07.104Z,6.9
2023-04-20T03:13:14.190Z,6.9
2023-04-20T03:14:20.857Z,6.9
2023-04-20T03:15:27.951Z,6.8
2023-04-20T03:16:35.033Z,6.9
2023-04-20T03:17:42.182Z,6.9
2023-04-20T03:18:48.699Z,6.8
2023-04-20T03:19:55.833Z,6.8
2023-04-20T03:22:10.099Z,6.8
2023-04-20T03:23:17.123Z,6.8
2023-04-20T03:24:23.751Z,6.8
2023-04-20T03:25:30.814Z,6.8
2023-04-20T03:26:38.001Z,6.8
2023-04-20T03:27:45.189Z,6.7
2023-04-20T03:28:52.131Z,6.7
2023-04-20T03:29:58.806Z,6.7
2023-04-20T03:31:05.835Z,6.7
2023-04-20T03:32:13.122Z,6.7
2023-04-20T03:33:20.083Z,6.7
2023-04-20T03:34:27.135Z,6.7
2023-04-20T03:35:33.696Z,6.7
2023-04-20T03:36:40.825Z,6.7
2023-04-20T03:37:48.006Z,6.7
2023-04-20T03:38:55.220Z,6.7
2023-04-20T03:40:02.162Z,6.7
2023-04-20T03:41:09.293Z,6.7
2023-04-20T03:42:15.818Z,6.7
2023-04-20T03:43:22.902Z,6.7
2023-04-20T03:44:30.053Z,6.7
2023-04-20T03:51:12.174Z,6.5
2023-04-20T03:52:18.785Z,6.5
2023-04-20T03:54:33.034Z,6.5
2023-04-20T03:55:40.103Z,6.5
2023-04-20T03:56:47.184Z,6.6
2023-04-20T03:57:53.773Z,6.5
2023-04-20T03:59:00.894Z,6.5
2023-04-20T04:00:08.004Z,6.5
2023-04-20T04:01:15.062Z,6.5
2023-04-20T04:02:22.520Z,6.5
2023-04-20T04:03:28.971Z,6.5
2023-04-20T04:04:36.216Z,6.5
2023-04-20T04:05:42.942Z,6.5
2023-04-20T04:06:50.094Z,6.5
2023-04-20T04:07:57.262Z,6.5
2023-04-20T04:09:03.726Z,6.4
2023-04-20T04:10:10.874Z,6.4
2023-04-20T04:11:17.979Z,6.4
2023-04-20T04:12:25.086Z,6.4
2023-04-20T04:13:34.415Z,6.4
2023-04-20T04:14:38.832Z,6.4
2023-04-20T04:15:45.980Z,6.4
2023-04-20T04:16:53.026Z,6.4
2023-04-20T04:18:00.164Z,6.4
2023-04-20T04:19:07.337Z,6.3
2023-04-20T04:20:13.823Z,6.3
2023-04-20T04:21:20.871Z,6.3
2023-04-20T04:22:30.436Z,6.3
2023-04-20T04:23:35.119Z,6.3
2023-04-20T04:24:42.242Z,6.3
2023-04-20T04:25:48.780Z,6.3
2023-04-20T04:26:55.937Z,6.3
2023-04-20T04:28:02.970Z,6.3
2023-04-20T04:29:10.184Z,6.3
2023-04-20T04:30:17.183Z,6.3
2023-04-20T04:31:23.867Z,6.3
2023-04-20T04:32:30.951Z,6.3
2023-04-20T04:33:38.056Z,6.3
2023-04-20T04:34:45.116Z,6.3
2023-04-20T04:35:52.282Z,6.3
2023-04-20T04:36:58.822Z,6.3
2023-04-20T04:38:05.907Z,6.3
2023-04-20T04:39:13.103Z,6.3
2023-04-20T04:40:20.114Z,6.2
2023-04-20T04:41:27.277Z,6.2
2023-04-20T04:42:33.782Z,6.2
2023-04-20T04:43:40.917Z,6.2
2023-04-20T04:44:48.022Z,6.2
2023-04-20T04:45:55.183Z,6.2
2023-04-20T04:47:02.236Z,6.2
2023-04-20T04:48:09.182Z,6.2
2023-04-20T04:50:23.051Z,6.1
2023-04-20T04:51:30.191Z,6.1
2023-04-20T04:52:37.282Z,6.1
2023-04-20T04:53:43.855Z,6.1
2023-04-20T04:54:50.949Z,6.1
2023-04-20T04:55:58.075Z,6.1
2023-04-20T04:59:19.001Z,6.1
2023-04-20T05:00:25.946Z,6.1
2023-04-20T05:01:33.049Z,6.1
2023-04-20T05:02:40.587Z,6.1
2023-04-20T05:03:47.640Z,6.1
2023-04-20T05:04:53.869Z,6.1
2023-04-20T05:06:00.970Z,6
2023-04-20T05:07:08.065Z,6
2023-04-20T05:08:15.177Z,6
2023-04-20T05:09:21.705Z,6
2023-04-20T05:10:28.855Z,6
2023-04-20T05:11:36.001Z,6
2023-04-20T05:12:43.084Z,6
2023-04-20T05:13:50.191Z,6
2023-04-20T05:14:56.806Z,6
2023-04-20T05:16:03.872Z,6
2023-04-20T05:17:10.932Z,6
2023-04-20T05:18:18.107Z,6
2023-04-20T05:19:25.278Z,6
2023-04-20T05:20:31.770Z,6
2023-04-20T05:21:38.929Z,6
2023-04-20T05:22:45.967Z,6
2023-04-20T05:23:53.117Z,6
2023-04-20T05:25:00.193Z,6
2023-04-20T05:26:06.844Z,6
2023-04-20T05:27:13.913Z,6
2023-04-20T05:28:20.946Z,6
2023-04-20T05:29:28.169Z,6
2023-04-20T05:30:35.192Z,6
2023-04-20T05:31:41.836Z,6
2023-04-20T05:32:51.603Z,6
2023-04-20T05:33:55.994Z,6
2023-04-20T05:35:03.127Z,6
2023-04-20T05:36:10.246Z,6
2023-04-20T05:37:16.800Z,6
2023-04-20T05:38:23.924Z,6
2023-04-20T05:39:31.069Z,6
2023-04-20T05:40:38.247Z,6
2023-04-20T05:41:45.234Z,6
2023-04-20T05:42:51.834Z,6
2023-04-20T05:43:58.940Z,6
2023-04-20T05:45:06.008Z,6
2023-04-20T05:46:13.194Z,6
2023-04-20T05:47:20.382Z,6
2023-04-20T05:48:29.515Z,6
2023-04-20T05:49:33.941Z,6
2023-04-20T05:50:41.035Z,6
2023-04-20T05:51:48.110Z,6
2023-04-20T05:52:55.414Z,6.1
2023-04-20T05:54:01.908Z,6.1
2023-04-20T05:55:08.902Z,6.1
2023-04-20T05:56:16.044Z,6.1
2023-04-20T05:57:23.141Z,6.1
2023-04-20T05:58:30.266Z,6.1
2023-04-20T05:59:36.820Z,6.1
2023-04-20T06:01:51.057Z,6.1
2023-04-20T06:02:58.287Z,6.2
2023-04-20T06:04:05.641Z,6.2
2023-04-20T06:05:11.929Z,6.2
2023-04-20T06:06:19.110Z,6.3
2023-04-20T06:07:26.024Z,6.3
2023-04-20T06:08:33.147Z,6.3
2023-04-20T06:09:39.781Z,6.4
2023-04-20T06:10:46.860Z,6.4
2023-04-20T06:11:53.933Z,6.5
2023-04-20T06:13:01.062Z,6.5
2023-04-20T06:14:08.254Z,6.5
2023-04-20T06:15:14.737Z,6.5
2023-04-20T06:16:21.899Z,6.5
2023-04-20T06:18:36.088Z,6.6
2023-04-20T06:19:43.230Z,6.6
2023-04-20T06:20:50.296Z,6.7
2023-04-20T06:21:58.317Z,6.7
2023-04-20T06:23:04.013Z,6.7
2023-04-20T06:24:11.170Z,6.7
2023-04-20T06:25:18.196Z,6.7
2023-04-20T06:26:24.744Z,6.6
2023-04-20T06:27:31.833Z,6.7
2023-04-20T06:28:38.998Z,6.7
2023-04-20T06:29:46.107Z,6.7
2023-04-20T06:30:53.237Z,6.8
2023-04-20T06:31:59.850Z,6.8
2023-04-20T06:33:06.942Z,6.8
2023-04-20T06:34:13.963Z,6.8
2023-04-20T06:35:21.140Z,6.9
2023-04-20T06:36:28.202Z,7
2023-04-20T06:37:34.789Z,7.1
2023-04-20T06:38:41.833Z,7.2
2023-04-20T06:39:49.027Z,7.4
2023-04-20T06:40:56.088Z,7.6
2023-04-20T06:42:03.683Z,7.9
2023-04-20T06:43:09.865Z,8.1
2023-04-20T06:44:16.996Z,8.4
2023-04-20T06:45:24.018Z,8.7
2023-04-20T06:46:31.153Z,8.9
2023-04-20T06:47:38.291Z,9.1
2023-04-20T06:48:44.802Z,9.4
2023-04-20T06:49:51.981Z,9.5
2023-04-20T06:50:59.015Z,9.6
2023-04-20T06:52:06.102Z,9.8
2023-04-20T06:53:13.162Z,10
2023-04-20T06:54:19.773Z,10.2
2023-04-20T06:55:26.936Z,10.3
2023-04-20T06:56:35.619Z,10.3
2023-04-20T06:57:41.148Z,10.4
2023-04-20T06:58:48.292Z,10.5
2023-04-20T06:59:54.857Z,10.7
2023-04-20T07:01:01.871Z,10.9
2023-04-20T07:02:09.073Z,11
2023-04-20T07:03:16.307Z,11.1
2023-04-20T07:05:29.886Z,11.4
2023-04-20T07:06:36.919Z,11.4
2023-04-20T07:07:44.058Z,11.5
2023-04-20T07:08:51.086Z,11.7
2023-04-20T07:09:58.290Z,11.7
2023-04-20T07:11:04.898Z,11.7
2023-04-20T07:12:11.880Z,11.7
2023-04-20T07:13:19.064Z,11.7
2023-04-20T07:14:26.184Z,11.8
2023-04-20T07:15:33.291Z,11.7
2023-04-20T07:16:39.892Z,11.8
2023-04-20T07:17:47.060Z,11.9
2023-04-20T07:18:53.991Z,11.9
2023-04-20T07:20:01.113Z,12
2023-04-20T07:21:08.241Z,12
2023-04-20T07:22:14.834Z,12
2023-04-20T07:23:21.994Z,12.1
2023-04-20T07:24:29.177Z,12.2
2023-04-20T07:25:36.229Z,12.3
2023-04-20T07:26:43.276Z,12.4
2023-04-20T07:27:49.831Z,12.4
2023-04-20T07:28:56.965Z,12.4
2023-04-20T07:30:04.062Z,12.6
2023-04-20T07:31:11.196Z,12.7
2023-04-20T07:32:17.758Z,12.8
2023-04-20T07:33:24.841Z,12.8
2023-04-20T07:34:32.072Z,12.9
2023-04-20T07:35:39.014Z,12.9
2023-04-20T07:36:46.212Z,13
2023-04-20T07:37:52.700Z,13
2023-04-20T07:38:59.855Z,13
2023-04-20T07:40:07.272Z,13.1
2023-04-20T07:41:14.073Z,13.2
2023-04-20T07:42:21.223Z,13.2
2023-04-20T07:43:27.823Z,13.2
2023-04-20T07:44:35.009Z,13.2
2023-04-20T07:46:49.056Z,13.3
2023-04-20T07:47:56.198Z,13.3
2023-04-20T07:49:02.806Z,13.3
2023-04-20T07:50:09.982Z,13.5
2023-04-20T07:51:16.953Z,13.5
2023-04-20T07:52:24.038Z,13.5
2023-04-20T07:53:31.155Z,13.4
2023-04-20T07:54:37.821Z,13.6
2023-04-20T07:55:44.899Z,13.7
2023-04-20T07:56:51.946Z,13.7
2023-04-20T07:57:59.174Z,13.9
2023-04-20T07:59:06.273Z,14
2023-04-20T08:00:12.773Z,14.2
2023-04-20T08:01:19.931Z,14.3
2023-04-20T08:02:27.143Z,14.3
2023-04-20T08:03:34.331Z,14.4
2023-04-20T08:04:41.483Z,14.4
2023-04-20T08:05:47.865Z,14.4
2023-04-20T08:06:55.008Z,14.4
2023-04-20T08:09:09.689Z,14.6
2023-04-20T08:10:16.446Z,14.6
2023-04-20T08:11:22.814Z,14.7
2023-04-20T08:12:29.955Z,14.9
2023-04-20T08:13:37.001Z,14.9
2023-04-20T08:14:44.141Z,14.9
2023-04-20T08:15:51.242Z,14.9
2023-04-20T08:16:57.844Z,14.9
2023-04-20T08:18:05.692Z,14.9
2023-04-20T08:19:12.028Z,14.9
2023-04-20T08:20:19.217Z,14.9
2023-04-20T08:21:26.326Z,14.9
2023-04-20T08:22:32.836Z,15
2023-04-20T08:23:39.917Z,14.9
2023-04-20T08:24:47.135Z,14.8
2023-04-20T08:25:54.145Z,14.9
2023-04-20T08:27:01.211Z,14.9
2023-04-20T08:28:12.003Z,14.9
2023-04-20T08:29:15.179Z,14.9
2023-04-20T08:30:22.086Z,15
2023-04-20T08:31:29.175Z,15.1
2023-04-20T08:32:36.215Z,15.2
2023-04-20T08:33:42.813Z,15.2
2023-04-20T08:34:50.056Z,15.3
2023-04-20T08:35:57.061Z,15.4
2023-04-20T08:37:04.137Z,15.5
2023-04-20T08:38:13.819Z,15.6
2023-04-20T08:39:17.967Z,15.6
2023-04-20T08:40:24.963Z,15.7
2023-04-20T08:41:32.052Z,15.7
2023-04-20T08:42:39.199Z,15.8
2023-04-20T08:43:45.910Z,15.9
2023-04-20T08:44:52.857Z,15.9
2023-04-20T08:46:00.000Z,15.9
2023-04-20T08:47:07.191Z,16
2023-04-20T08:48:14.169Z,16.1
2023-04-20T08:49:20.858Z,16.1
2023-04-20T08:50:27.914Z,16.2
2023-04-20T08:51:34.972Z,16.2
2023-04-20T08:52:42.062Z,16.4
2023-04-20T08:53:49.148Z,16.4
2023-04-20T08:54:57.821Z,16.4
2023-04-20T08:56:02.920Z,16.6
2023-04-20T08:57:09.993Z,16.6
2023-04-20T08:58:17.024Z,16.6
2023-04-20T08:59:24.170Z,16.7
2023-04-20T09:00:30.777Z,16.7
2023-04-20T09:01:37.902Z,16.7
2023-04-20T09:02:45.078Z,16.7
2023-04-20T09:03:52.247Z,16.7
2023-04-20T09:04:59.291Z,16.7
2023-04-20T09:06:05.754Z,16.7
2023-04-20T09:07:12.899Z,16.7
2023-04-20T09:08:20.017Z,16.9
2023-04-20T09:09:27.097Z,16.9
2023-04-20T09:10:34.206Z,17
2023-04-20T09:12:47.866Z,17.1
2023-04-20T09:15:02.134Z,17.3
2023-04-20T09:16:09.273Z,17.3
2023-04-20T09:17:15.765Z,17.2
2023-04-20T09:18:22.910Z,17.1
2023-04-20T09:19:30.109Z,17.2
2023-04-20T09:20:37.121Z,17.3
2023-04-20T09:21:44.205Z,17.4
2023-04-20T09:22:50.786Z,17.6
2023-04-20T09:23:57.908Z,17.6
2023-04-20T09:25:05.022Z,17.7
2023-04-20T09:26:12.140Z,17.6
2023-04-20T09:27:19.294Z,17.6
2023-04-20T09:28:25.837Z,17.6
2023-04-20T09:29:32.920Z,17.6
2023-04-20T09:30:40.088Z,17.7
2023-04-20T09:31:47.210Z,17.7
2023-04-20T09:32:53.775Z,17.6
2023-04-20T09:34:00.828Z,17.6
2023-04-20T09:35:07.955Z,17.6
2023-04-20T09:36:15.042Z,17.7
2023-04-20T09:37:22.117Z,17.9
2023-04-20T09:38:28.690Z,17.9
2023-04-20T09:39:35.852Z,17.8
2023-04-20T09:40:42.929Z,17.8
2023-04-20T09:41:50.006Z,17.8
2023-04-20T09:42:57.110Z,17.9
2023-04-20T09:44:03.747Z,17.8
2023-04-20T09:45:10.899Z,17.7
2023-04-20T09:46:18.004Z,17.6
2023-04-20T09:47:25.079Z,17.5
2023-04-20T09:48:32.403Z,17.5
2023-04-20T09:49:38.795Z,17.5
2023-04-20T09:50:49.348Z,17.5
2023-04-20T09:51:52.960Z,17.6
2023-04-20T09:53:00.069Z,17.6
2023-04-20T09:54:07.122Z,17.6
2023-04-20T09:55:13.719Z,17.5
2023-04-20T09:56:20.789Z,17.4
2023-04-20T09:57:28.061Z,17.5
2023-04-20T09:58:35.028Z,17.5
2023-04-20T09:59:42.216Z,17.4
2023-04-20T10:00:48.750Z,17.4
2023-04-20T10:01:55.884Z,17.4
2023-04-20T10:03:03.137Z,17.3
2023-04-20T10:04:10.180Z,17.3
2023-04-20T10:06:23.892Z,17.3
2023-04-20T10:07:30.857Z,17.4
2023-04-20T10:08:38.024Z,17.5
2023-04-20T10:09:45.131Z,17.6
2023-04-20T10:10:52.155Z,17.6
2023-04-20T10:11:59.610Z,17.7
2023-04-20T10:13:05.866Z,17.7
2023-04-20T10:14:12.955Z,17.7
2023-04-20T10:16:27.229Z,17.7
2023-04-20T10:17:33.968Z,17.7
2023-04-20T10:18:40.951Z,17.7
2023-04-20T10:19:48.066Z,17.7
2023-04-20T10:20:55.101Z,17.7
2023-04-20T10:22:03.773Z,17.7
2023-04-20T10:23:08.724Z,17.7
2023-04-20T10:24:17.658Z,17.7
2023-04-20T10:25:22.934Z,17.7
2023-04-20T10:26:30.104Z,17.7
2023-04-20T10:27:37.219Z,17.7
2023-04-20T10:28:43.783Z,17.6
2023-04-20T10:29:50.974Z,17.6
2023-04-20T10:30:58.069Z,17.6
2023-04-20T10:32:05.105Z,17.6
2023-04-20T10:33:11.748Z,17.7
2023-04-20T10:34:18.991Z,17.7
2023-04-20T10:35:26.060Z,17.7
2023-04-20T10:36:33.058Z,17.7
2023-04-20T10:37:40.126Z,17.7
2023-04-20T10:38:46.728Z,17.8
2023-04-20T10:39:53.739Z,17.8
2023-04-20T10:41:00.977Z,17.8
2023-04-20T10:43:15.169Z,17.8
2023-04-20T10:44:21.677Z,17.8
2023-04-20T10:45:28.853Z,17.8
2023-04-20T10:46:36.068Z,17.8
2023-04-20T10:47:42.987Z,17.7
2023-04-20T10:48:50.120Z,17.7
2023-04-20T10:49:56.731Z,17.7
2023-04-20T10:51:03.798Z,17.7
2023-04-20T10:52:10.936Z,17.7
2023-04-20T10:53:18.064Z,17.7
2023-04-20T10:54:25.154Z,17.6
2023-04-20T10:55:31.666Z,17.6
2023-04-20T10:56:38.833Z,17.6
2023-04-20T10:57:46.026Z,17.6
2023-04-20T10:58:53.039Z,17.6
2023-04-20T11:00:00.168Z,17.7
2023-04-20T11:01:06.759Z,17.7
2023-04-20T11:02:13.891Z,17.6
2023-04-20T11:03:21.169Z,17.6
2023-04-20T11:04:28.123Z,17.6
2023-04-20T11:05:35.231Z,17.6
2023-04-20T11:06:41.777Z,17.6
2023-04-20T11:07:48.873Z,17.6
2023-04-20T11:08:56.036Z,17.6
2023-04-20T11:10:03.055Z,17.6
2023-04-20T11:11:11.283Z,17.6
2023-04-20T11:12:16.762Z,17.6
2023-04-20T11:13:23.790Z,17.7
2023-04-20T11:14:31.110Z,17.7
2023-04-20T11:15:38.039Z,17.6
2023-04-20T11:16:51.532Z,17.7
2023-04-20T11:17:51.779Z,17.7
2023-04-20T11:20:05.995Z,17.7
2023-04-20T11:21:13.051Z,17.7
2023-04-20T11:22:20.317Z,17.7
2023-04-20T11:23:26.732Z,17.6
2023-04-20T11:24:34.158Z,17.7
2023-04-20T11:25:41.035Z,17.6
2023-04-20T11:26:48.043Z,17.6
2023-04-20T11:27:54.620Z,17.6
2023-04-20T11:29:01.794Z,17.6
2023-04-20T11:30:08.899Z,17.7
2023-04-20T11:31:16.027Z,17.7
2023-04-20T11:32:23.231Z,17.7
2023-04-20T11:33:29.725Z,17.6
2023-04-20T11:34:36.809Z,17.6
2023-04-20T11:35:43.828Z,17.7
2023-04-20T11:36:50.928Z,17.7
2023-04-20T11:37:58.122Z,17.6
2023-04-20T11:39:04.688Z,17.6
2023-04-20T11:40:11.866Z,17.6
2023-04-20T11:41:18.841Z,17.6
2023-04-20T11:42:26.015Z,17.6
2023-04-20T11:43:33.042Z,17.5
2023-04-20T11:44:39.659Z,17.5
2023-04-20T11:45:46.765Z,17.4
2023-04-20T11:46:54.017Z,17.4
2023-04-20T11:48:01.050Z,17.4
2023-04-20T11:49:08.084Z,17.4
2023-04-20T11:50:14.692Z,17.5
2023-04-20T11:51:21.795Z,17.5
2023-04-20T11:52:28.936Z,17.4
2023-04-20T11:53:36.022Z,17.5
2023-04-20T11:54:43.096Z,17.4
2023-04-20T11:55:49.705Z,17.4
2023-04-20T11:56:56.807Z,17.4
2023-04-20T11:58:04.040Z,17.6
2023-04-20T11:59:10.967Z,17.6
2023-04-20T12:00:18.187Z,17.6
2023-04-20T12:01:24.741Z,17.6
2023-04-20T12:02:31.955Z,17.7
2023-04-20T12:03:39.134Z,17.7
2023-04-20T12:04:46.263Z,17.7
2023-04-20T12:05:53.233Z,17.7
2023-04-20T12:06:59.689Z,17.7
2023-04-20T12:08:06.786Z,17.7
2023-04-20T12:09:13.892Z,17.6
2023-04-20T12:11:28.206Z,17.7
2023-04-20T12:12:34.745Z,17.7
2023-04-20T12:13:41.825Z,17.6
2023-04-20T12:14:48.940Z,17.6
2023-04-20T12:15:56.138Z,17.6
2023-04-20T12:17:03.146Z,17.5
2023-04-20T12:18:09.735Z,17.4
2023-04-20T12:19:17.439Z,17.4
2023-04-20T12:20:23.927Z,17.4
2023-04-20T12:21:31.021Z,17.3
2023-04-20T12:23:44.791Z,17.3
2023-04-20T12:24:51.886Z,17.3
2023-04-20T12:25:58.923Z,17.4
2023-04-20T12:27:06.083Z,17.4
2023-04-20T12:28:12.582Z,17.4
2023-04-20T12:29:20.099Z,17.4
2023-04-20T12:30:26.864Z,17.4
2023-04-20T12:31:33.967Z,17.4
2023-04-20T12:32:41.109Z,17.4
2023-04-20T12:33:47.722Z,17.4
2023-04-20T12:34:54.924Z,17.4
2023-04-20T12:36:01.849Z,17.3
2023-04-20T12:37:08.972Z,17.3
2023-04-20T12:38:16.032Z,17.4
2023-04-20T12:39:22.633Z,17.4
2023-04-20T12:40:29.762Z,17.4
2023-04-20T12:41:36.857Z,17.4
2023-04-20T12:42:43.961Z,17.4
2023-04-20T12:43:51.081Z,17.5
2023-04-20T12:44:57.635Z,17.5
2023-04-20T12:46:04.830Z,17.5
2023-04-20T12:47:11.835Z,17.4
2023-04-20T12:48:19.100Z,17.4
2023-04-20T12:49:26.085Z,17.4
2023-04-20T12:50:32.673Z,17.4
2023-04-20T12:51:39.808Z,17.4
2023-04-20T12:52:46.888Z,17.4
2023-04-20T12:53:53.967Z,17.3
2023-04-20T12:55:01.129Z,17.3
2023-04-20T12:56:07.699Z,17.3
2023-04-20T12:57:14.808Z,17.3
2023-04-20T12:58:21.874Z,17.3
2023-04-20T12:59:29.001Z,17.4
2023-04-20T13:00:36.116Z,17.3
2023-04-20T13:01:42.631Z,17.4
2023-04-20T13:02:49.986Z,17.3
2023-04-20T13:03:57.149Z,17.3
2023-04-20T13:05:04.016Z,17.3
2023-04-20T13:06:13.599Z,17.3
2023-04-20T13:07:17.660Z,17.3
2023-04-20T13:08:24.783Z,17.3
2023-04-20T13:09:31.925Z,17.3
2023-04-20T13:10:38.975Z,17.3
2023-04-20T13:11:46.081Z,17.3
2023-04-20T13:12:52.705Z,17.3
2023-04-20T13:13:59.820Z,17.3
2023-04-20T13:15:06.939Z,17.4
2023-04-20T13:16:14.052Z,17.3
2023-04-20T13:17:21.136Z,17.4
2023-04-20T13:18:27.718Z,17.4
2023-04-20T13:19:34.825Z,17.4
2023-04-20T13:20:41.984Z,17.4
2023-04-20T13:21:49.047Z,17.3
2023-04-20T13:22:58.412Z,17.3
2023-04-20T13:24:02.696Z,17.3
2023-04-20T13:25:09.855Z,17.2
2023-04-20T13:27:23.982Z,17.2
2023-04-20T13:28:30.552Z,17.2
2023-04-20T13:29:37.726Z,17.2
2023-04-20T13:30:44.838Z,17.2
2023-04-20T13:31:51.887Z,17.2
2023-04-20T13:32:59.161Z,17.2
2023-04-20T13:34:05.591Z,17.2
2023-04-20T13:35:12.764Z,17.2
2023-04-20T13:36:19.816Z,17.2
2023-04-20T13:37:26.950Z,17.1
2023-04-20T13:39:40.646Z,17.1
2023-04-20T13:40:47.741Z,17.1
2023-04-20T13:41:54.876Z,17.1
2023-04-20T13:43:01.898Z,17.1
2023-04-20T13:44:09.019Z,17.1
2023-04-20T13:45:15.769Z,17.1
2023-04-20T13:46:22.855Z,17.1
2023-04-20T13:47:29.893Z,17.2
2023-04-20T13:48:36.970Z,17.1
2023-04-20T13:49:44.055Z,17.1
2023-04-20T13:50:50.774Z,17.2
2023-04-20T13:51:57.738Z,17.2
2023-04-20T13:53:04.846Z,17.2
2023-04-20T13:54:11.983Z,17.1
2023-04-20T13:55:19.038Z,17.1
2023-04-20T13:56:25.693Z,17.1
2023-04-20T13:57:32.729Z,17.1
2023-04-20T13:58:39.920Z,17.2
2023-04-20T13:59:47.107Z,17.2
2023-04-20T14:00:54.039Z,17.1
2023-04-20T14:02:03.843Z,17.1
2023-04-20T14:03:07.922Z,17.1
2023-04-20T14:04:15.053Z,17.1
2023-04-20T14:05:21.969Z,17.1
2023-04-20T14:06:29.083Z,17.1
2023-04-20T14:07:35.636Z,17.1
2023-04-20T14:08:42.775Z,17.1
2023-04-20T14:09:49.924Z,17.1
2023-04-20T14:10:57.020Z,17
2023-04-20T14:12:04.078Z,17.1
2023-04-20T14:13:10.670Z,17.1
2023-04-20T14:14:18.017Z,17
2023-04-20T14:15:24.939Z,17
2023-04-20T14:16:32.202Z,17
2023-04-20T14:17:38.646Z,17
2023-04-20T14:18:45.708Z,17
2023-04-20T14:19:52.780Z,17
2023-04-20T14:21:00.034Z,17
2023-04-20T14:22:07.036Z,17
2023-04-20T14:23:13.529Z,17
2023-04-20T14:24:20.786Z,17
2023-04-20T14:25:27.843Z,17
2023-04-20T14:27:41.948Z,16.9
2023-04-20T14:28:48.620Z,16.9
2023-04-20T14:31:02.854Z,17
2023-04-20T14:32:09.896Z,17
2023-04-20T14:33:17.073Z,17
2023-04-20T14:34:23.604Z,17
2023-04-20T14:35:30.652Z,17
2023-04-20T14:36:37.909Z,17
2023-04-20T14:37:44.943Z,17
2023-04-20T14:38:52.029Z,17
2023-04-20T14:39:58.552Z,17
2023-04-20T14:41:05.823Z,17
2023-04-20T14:42:12.812Z,16.9
2023-04-20T14:43:19.948Z,17
2023-04-20T14:44:27.026Z,16.9
2023-04-20T14:45:33.621Z,16.9
2023-04-20T14:46:42.276Z,16.9
2023-04-20T14:47:47.889Z,16.9
2023-04-20T14:48:54.912Z,16.9
2023-04-20T14:50:02.061Z,16.9
2023-04-20T14:51:08.634Z,16.9
2023-04-20T14:52:15.724Z,16.9
2023-04-20T14:53:22.832Z,16.9
2023-04-20T14:54:29.967Z,16.9
2023-04-20T14:55:37.150Z,16.8
2023-04-20T14:56:43.615Z,16.8
2023-04-20T14:57:50.735Z,16.8
2023-04-20T14:58:58.047Z,16.7
2023-04-20T15:00:04.961Z,16.7
2023-04-20T15:01:12.080Z,16.8
2023-04-20T15:02:18.880Z,16.8
2023-04-20T15:03:25.970Z,16.7
2023-04-20T15:04:33.104Z,16.7
2023-04-20T15:05:39.950Z,16.8
2023-04-20T15:07:53.648Z,16.7
2023-04-20T15:09:00.743Z,16.7
2023-04-20T15:10:07.891Z,16.7
2023-04-20T15:11:14.993Z,16.7
2023-04-20T15:12:21.485Z,16.6
2023-04-20T15:13:28.635Z,16.6
2023-04-20T15:14:35.762Z,16.6
2023-04-20T15:16:50.015Z,16.6
2023-04-20T15:17:57.108Z,16.7
2023-04-20T15:19:03.602Z,16.6
2023-04-20T15:20:10.805Z,16.6
2023-04-20T15:21:17.886Z,16.6
2023-04-20T15:22:25.011Z,16.6
2023-04-20T15:23:31.545Z,16.6
2023-04-20T15:24:38.682Z,16.6
2023-04-20T15:25:45.807Z,16.5
2023-04-20T15:26:52.845Z,16.4
2023-04-20T15:27:59.936Z,16.4
2023-04-20T15:29:06.619Z,16.4
2023-04-20T15:30:13.671Z,16.4
2023-04-20T15:31:20.823Z,16.3
2023-04-20T15:32:27.946Z,16.3
2023-04-20T15:34:41.579Z,16.3
2023-04-20T15:35:48.774Z,16.3
2023-04-20T15:36:55.831Z,16.2
2023-04-20T15:38:02.917Z,16.2
2023-04-20T15:39:10.038Z,16.2
2023-04-20T15:40:16.630Z,16.2
2023-04-20T15:41:23.679Z,16.1
2023-04-20T15:42:30.819Z,16.1
2023-04-20T15:43:38.393Z,16.2
2023-04-20T15:44:45.068Z,16.2
2023-04-20T15:45:51.580Z,16.2
2023-04-20T15:46:58.680Z,16.2
2023-04-20T15:48:05.899Z,16.2
2023-04-20T15:49:12.891Z,16.1